Time;durP1;ratioP1;P1;durP2;ratioP2;P2;SDS_P1;SDS_P2;PMS_P1;PMS_P2;Temp;Humidity;BMP_temperature;BMP_pressure;BME280_temperature;BME280_humidity;BME280_pressure;Samples;Min_cycle;Max_cycle;Signal;HPM_P1;HPM_P2
2022/10/24 00:00:24;;;;;;;11.98;4.55;;;;;;;13.99;100.00;100337.13;7372319;19;20026;-67
2022/10/24 00:02:54;;;;;;;10.10;3.63;;;;;;;14.13;100.00;100336.13;7373093;19;20019;-67
2022/10/24 00:05:24;;;;;;;9.20;4.03;;;;;;;14.13;100.00;100350.19;7370883;19;20014;-67
2022/10/24 00:07:54;;;;;;;7.07;3.50;;;;;;;14.12;100.00;100339.66;7368258;19;20474;-67
2022/10/24 00:10:24;;;;;;;11.45;3.95;;;;;;;14.23;100.00;100351.00;7367138;19;20022;-67
2022/10/24 00:12:58;;;;;;;9.90;3.72;;;;;;;14.21;100.00;100342.22;7368924;19;20567;-67
2022/10/24 00:15:27;;;;;;;11.50;3.83;;;;;;;14.25;100.00;100333.38;7368678;19;20014;-68
2022/10/24 00:17:57;;;;;;;9.02;4.28;;;;;;;14.39;100.00;100336.75;7370948;19;20014;-67
2022/10/24 00:20:26;;;;;;;10.50;3.72;;;;;;;14.46;100.00;100332.31;7364622;19;20513;-67
2022/10/24 00:22:56;;;;;;;9.82;3.50;;;;;;;14.44;100.00;100334.97;7367718;19;20019;-67
2022/10/24 00:25:26;;;;;;;12.13;3.80;;;;;;;14.51;100.00;100325.25;7368145;19;20044;-67
2022/10/24 00:27:58;;;;;;;9.98;3.80;;;;;;;14.49;100.00;100327.03;7369586;19;20015;-67
2022/10/24 00:30:28;;;;;;;8.27;3.55;;;;;;;14.55;100.00;100319.91;7367447;19;20455;-66
2022/10/24 00:32:57;;;;;;;12.50;3.47;;;;;;;14.67;100.00;100329.41;7373425;19;20021;-67
2022/10/24 00:35:27;;;;;;;11.55;3.88;;;;;;;14.65;100.00;100312.72;7374607;19;20027;-67
2022/10/24 00:37:57;;;;;;;9.77;3.33;;;;;;;14.63;100.00;100319.78;7371787;19;20479;-67
2022/10/24 00:40:27;;;;;;;7.85;3.13;;;;;;;14.74;100.00;100323.19;7371076;19;20553;-67
2022/10/24 00:42:59;;;;;;;6.22;2.85;;;;;;;14.80;100.00;100316.94;7364853;19;20015;-67
2022/10/24 00:45:46;;;;;;;8.27;2.70;;;;;;;14.82;100.00;100320.44;7368158;19;20015;-68
2022/10/24 00:48:22;;;;;;;11.45;3.45;;;;;;;14.83;100.00;100316.91;7379572;19;20025;-68
2022/10/24 00:50:55;;;;;;;10.38;3.05;;;;;;;14.80;100.00;100311.69;7373534;19;20018;-68
2022/10/24 00:53:27;;;;;;;8.83;3.20;;;;;;;14.86;100.00;100311.59;7374585;19;20046;-68
2022/10/24 00:55:59;;;;;;;8.27;2.85;;;;;;;14.79;100.00;100309.94;7370032;19;20302;-69
2022/10/24 00:58:35;;;;;;;12.10;2.97;;;;;;;14.84;100.00;100310.75;7376530;19;20027;-68
2022/10/24 01:01:05;;;;;;;7.97;3.00;;;;;;;14.97;100.00;100302.66;7372897;19;20370;-67
2022/10/24 01:03:35;;;;;;;9.80;2.90;;;;;;;15.02;100.00;100292.03;7374047;19;20043;-67
2022/10/24 01:06:35;;;;;;;6.70;2.55;;;;;;;15.02;100.00;100302.59;7372899;19;20122;-67
2022/10/24 01:09:15;;;;;;;11.02;3.42;;;;;;;14.99;100.00;100295.56;7374590;19;20022;-67
2022/10/24 01:11:58;;;;;;;7.85;2.60;;;;;;;15.07;100.00;100297.25;7373490;19;20030;-67
2022/10/24 01:14:43;;;;;;;11.40;2.80;;;;;;;15.07;100.00;100292.84;7379374;19;20076;-66
2022/10/24 01:17:21;;;;;;;11.80;3.00;;;;;;;15.07;100.00;100286.69;7374200;19;20010;-67
2022/10/24 01:20:27;;;;;;;8.50;3.22;;;;;;;15.05;100.00;100300.78;7371494;19;20014;-67
2022/10/24 01:23:09;;;;;;;8.38;2.97;;;;;;;15.03;100.00;100299.06;7374292;19;20014;-67
2022/10/24 01:25:48;;;;;;;9.43;2.75;;;;;;;15.26;100.00;100290.81;7377183;19;20011;-67
2022/10/24 01:28:20;;;;;;;11.13;2.95;;;;;;;15.11;100.00;100289.25;7375742;19;20017;-67
2022/10/24 01:31:04;;;;;;;8.60;3.58;;;;;;;15.14;100.00;100290.97;7372273;19;20043;-67
2022/10/24 01:33:38;;;;;;;11.82;2.90;;;;;;;15.16;100.00;100290.06;7374793;19;20029;-67
2022/10/24 01:36:12;;;;;;;8.02;2.38;;;;;;;15.12;100.00;100283.06;7375798;19;20014;-67
2022/10/24 01:38:43;;;;;;;;;;;;;;;15.03;100.00;100285.84;7372879;19;20014;-67
2022/10/24 01:41:18;;;;;;;8.02;2.85;;;;;;;15.15;100.00;100271.59;7375454;19;19922;-67
2022/10/24 01:43:53;;;;;;;7.97;2.72;;;;;;;15.06;100.00;100288.44;7375616;19;20014;-67
2022/10/24 01:46:30;;;;;;;8.30;2.80;;;;;;;14.97;100.00;100278.00;7376751;19;20011;-67
2022/10/24 01:49:03;;;;;;;10.70;3.08;;;;;;;14.90;100.00;100268.44;7372851;19;20013;-67
2022/10/24 01:51:35;;;;;;;;;;;;;;;14.98;100.00;100277.13;7373627;19;20034;-67
2022/10/24 01:54:05;;;;;;;10.93;2.60;;;;;;;15.00;100.00;100270.91;7367137;19;19944;-67
2022/10/24 01:56:35;;;;;;;7.32;2.45;;;;;;;14.98;100.00;100266.56;7368437;19;20011;-67
2022/10/24 01:59:06;;;;;;;3.95;2.38;;;;;;;15.07;100.00;100268.19;7369201;19;21505;-67
2022/10/24 02:01:40;;;;;;;5.95;2.30;;;;;;;15.10;100.00;100268.16;7367782;19;20014;-67
2022/10/24 02:04:13;;;;;;;5.72;2.65;;;;;;;15.05;100.00;100273.50;7368932;19;20014;-67
2022/10/24 02:06:44;;;;;;;6.20;3.03;;;;;;;15.07;100.00;100263.78;7371996;19;20011;-67
2022/10/24 02:09:18;;;;;;;7.95;2.92;;;;;;;15.13;100.00;100265.47;7373066;19;20025;-67
2022/10/24 02:11:50;;;;;;;7.32;2.78;;;;;;;15.09;100.00;100263.75;7369267;19;20015;-67
2022/10/24 02:14:25;;;;;;;6.07;2.63;;;;;;;14.99;100.00;100258.59;7372595;19;20022;-67
2022/10/24 02:16:58;;;;;;;6.88;2.63;;;;;;;14.98;100.00;100263.91;7371127;19;20010;-67
2022/10/24 02:19:28;;;;;;;5.38;2.40;;;;;;;15.08;100.00;100241.75;7371522;19;20014;-67
2022/10/24 02:22:06;;;;;;;7.15;2.60;;;;;;;15.06;100.00;100251.47;7368946;19;20010;-67
2022/10/24 02:24:43;;;;;;;8.85;2.70;;;;;;;15.04;100.00;100255.91;7371980;19;20011;-67
2022/10/24 02:27:17;;;;;;;7.30;2.47;;;;;;;15.04;100.00;100259.41;7360979;19;20482;-67
2022/10/24 02:29:53;;;;;;;5.72;2.28;;;;;;;15.05;100.00;100258.53;7373381;19;20011;-67
2022/10/24 02:32:29;;;;;;;5.28;2.13;;;;;;;15.09;100.00;100259.34;7370951;19;20013;-67
2022/10/24 02:35:02;;;;;;;5.80;2.45;;;;;;;15.13;100.00;100265.47;7372389;19;20625;-67
2022/10/24 02:37:35;;;;;;;5.75;2.33;;;;;;;15.05;100.00;100262.94;7368874;19;20014;-67
2022/10/24 02:40:08;;;;;;;10.52;3.20;;;;;;;14.98;100.00;100264.78;7369009;19;20158;-67
2022/10/24 02:42:40;;;;;;;5.57;2.35;;;;;;;15.05;100.00;100255.00;7369341;19;20039;-67
2022/10/24 02:45:13;;;;;;;12.05;3.10;;;;;;;14.97;100.00;100262.16;7375254;19;20469;-67
2022/10/24 02:47:47;;;;;;;9.70;2.85;;;;;;;14.97;100.00;100256.88;7369206;19;20021;-67
2022/10/24 02:50:17;;;;;;;6.07;2.95;;;;;;;14.95;100.00;100258.66;7374014;19;20453;-67
2022/10/24 02:52:47;;;;;;;5.30;2.83;;;;;;;14.94;100.00;100256.94;7364294;19;20392;-67
2022/10/24 02:55:17;;;;;;;6.95;2.85;;;;;;;14.85;100.00;100257.06;7367132;19;20523;-67
2022/10/24 02:57:46;;;;;;;9.25;3.05;;;;;;;14.91;100.00;100246.41;7364276;19;20585;-67
2022/10/24 03:00:17;;;;;;;6.93;2.20;;;;;;;14.89;100.00;100249.06;7371024;19;20054;-67
2022/10/24 03:02:50;;;;;;;9.88;2.55;;;;;;;15.01;100.00;100253.31;7366059;19;20010;-67
2022/10/24 03:05:20;;;;;;;8.30;2.77;;;;;;;14.86;100.00;100250.88;7370825;19;20014;-67
2022/10/24 03:07:49;;;;;;;6.88;2.50;;;;;;;14.84;100.00;100247.38;7370811;19;20006;-67
2022/10/24 03:10:19;;;;;;;5.85;2.42;;;;;;;14.73;100.00;100234.31;7369349;19;20027;-67
2022/10/24 03:12:49;;;;;;;9.55;2.20;;;;;;;14.78;100.00;100236.91;7372179;19;20006;-67
2022/10/24 03:15:19;;;;;;;8.80;2.40;;;;;;;14.80;100.00;100245.69;7371438;19;20014;-67
2022/10/24 03:17:51;;;;;;;9.60;2.25;;;;;;;14.83;100.00;100237.72;7370219;19;20239;-67
2022/10/24 03:20:21;;;;;;;10.45;2.17;;;;;;;14.90;100.00;100234.09;7369155;19;20094;-67
2022/10/24 03:22:50;;;;;;;7.60;2.40;;;;;;;14.78;100.00;100245.69;7369258;19;20087;-67
2022/10/24 03:25:20;;;;;;;7.00;2.05;;;;;;;14.76;100.00;100225.50;7370593;19;20081;-67
2022/10/24 03:27:50;;;;;;;8.50;2.20;;;;;;;14.79;100.00;100238.66;7370449;19;20459;-66
2022/10/24 03:30:19;;;;;;;5.28;2.08;;;;;;;14.75;100.00;100240.47;7372689;19;20018;-67
2022/10/24 03:32:52;;;;;;;9.15;2.05;;;;;;;14.70;100.00;100248.44;7368589;19;20015;-66
2022/10/24 03:35:21;;;;;;;6.10;1.83;;;;;;;14.65;100.00;100255.53;7373398;19;20031;-66
2022/10/24 03:37:51;;;;;;;5.40;1.98;;;;;;;14.67;100.00;100256.41;7375146;19;20025;-66
2022/10/24 03:40:21;;;;;;;10.52;2.33;;;;;;;14.60;100.00;100257.38;7375451;19;20013;-68
2022/10/24 03:42:50;;;;;;;8.48;2.28;;;;;;;14.66;100.00;100254.66;7369639;19;20014;-68
2022/10/24 03:45:20;;;;;;;8.48;2.20;;;;;;;14.66;100.00;100257.28;7373580;19;20014;-67
2022/10/24 03:47:53;;;;;;;6.60;2.00;;;;;;;14.81;100.00;100255.34;7371458;19;20010;-69
2022/10/24 03:50:23;;;;;;;7.68;2.10;;;;;;;14.79;100.00;100254.50;7376288;19;20022;-66
2022/10/24 03:52:53;;;;;;;9.82;2.45;;;;;;;14.81;100.00;100257.97;7369680;19;20010;-69
2022/10/24 03:55:23;;;;;;;8.88;4.32;;;;;;;14.72;100.00;100241.38;7373125;19;20014;-69
2022/10/24 03:57:53;;;;;;;8.75;2.20;;;;;;;14.79;100.00;100241.28;7373277;19;20014;-66
2022/10/24 04:00:23;;;;;;;5.40;1.27;;;;;;;14.89;100.00;100249.06;7367994;19;20011;-67
2022/10/24 04:02:56;;;;;;;4.18;1.73;;;;;;;14.88;100.00;100251.72;7371898;19;20081;-68
2022/10/24 04:05:25;;;;;;;8.65;2.22;;;;;;;14.85;100.00;100238.56;7373441;19;20569;-67
2022/10/24 04:07:55;;;;;;;7.22;1.80;;;;;;;14.79;100.00;100249.22;7374678;19;20014;-67
2022/10/24 04:10:25;;;;;;;7.78;1.88;;;;;;;14.80;100.00;100243.91;7373610;19;20003;-67
2022/10/24 04:12:55;;;;;;;7.70;2.03;;;;;;;14.78;100.00;100235.13;7370621;19;20018;-67
2022/10/24 04:15:24;;;;;;;8.27;1.88;;;;;;;14.75;100.00;100248.38;7373711;19;20010;-68
2022/10/24 04:17:57;;;;;;;10.55;1.83;;;;;;;14.92;100.00;100237.59;7367961;19;20089;-67
2022/10/24 04:20:27;;;;;;;6.28;2.08;;;;;;;14.95;100.00;100241.06;7373899;19;20007;-69
2022/10/24 04:22:57;;;;;;;12.07;3.72;;;;;;;14.93;100.00;100257.81;7378811;19;20031;-68
2022/10/24 04:25:32;;;;;;;5.90;1.80;;;;;;;15.04;100.00;100224.22;7380125;19;20034;-66
2022/10/24 04:28:01;;;;;;;9.30;1.88;;;;;;;14.96;100.00;100239.28;7378966;19;20026;-69
2022/10/24 04:30:31;;;;;;;6.65;1.70;;;;;;;14.96;100.00;100237.53;7382292;19;20010;-68
2022/10/24 04:33:03;;;;;;;8.80;2.67;;;;;;;14.94;100.00;100233.16;7377768;19;20018;-68
2022/10/24 04:35:33;;;;;;;15.48;2.97;;;;;;;14.99;100.00;100229.56;7380454;19;20118;-69
2022/10/24 04:38:03;;;;;;;2.80;1.30;;;;;;;15.05;100.00;100228.59;7379236;19;20014;-69
2022/10/24 04:40:33;;;;;;;7.55;2.22;;;;;;;15.14;100.00;100222.31;7377582;19;20109;-69
2022/10/24 04:43:02;;;;;;;5.18;2.00;;;;;;;15.20;100.00;100220.44;7376224;19;20018;-68
2022/10/24 04:45:32;;;;;;;7.20;1.85;;;;;;;15.19;100.00;100231.91;7377623;19;20368;-68
2022/10/24 04:48:05;;;;;;;7.88;1.70;;;;;;;15.11;100.00;100236.44;7376110;19;20050;-68
2022/10/24 04:50:34;;;;;;;6.55;1.50;;;;;;;15.08;100.00;100223.28;7379655;19;20036;-68
2022/10/24 04:53:04;;;;;;;5.88;1.48;;;;;;;15.14;100.00;100223.19;7373621;19;20015;-69
2022/10/24 04:55:34;;;;;;;8.50;2.33;;;;;;;15.12;100.00;100224.97;7373052;19;20013;-69
2022/10/24 04:58:24;;;;;;;8.85;2.55;;;;;;;15.18;100.00;100216.97;7376056;19;20022;-69
2022/10/24 05:00:54;;;;;;;6.03;1.70;;;;;;;15.06;100.00;100219.78;7377042;19;20517;-69
2022/10/24 05:03:27;;;;;;;7.50;2.22;;;;;;;15.14;100.00;100228.47;7380892;19;20007;-68
2022/10/24 05:05:57;;;;;;;7.32;2.13;;;;;;;15.11;100.00;100223.22;7376681;19;20033;-67
2022/10/24 05:08:27;;;;;;;5.35;1.77;;;;;;;15.06;100.00;100225.06;7379732;19;20035;-67
2022/10/24 05:10:57;;;;;;;8.07;1.60;;;;;;;15.10;100.00;100218.84;7375695;19;20010;-67
2022/10/24 05:13:27;;;;;;;5.88;1.50;;;;;;;15.06;100.00;100230.34;7376761;19;20404;-67
2022/10/24 05:16:03;;;;;;;4.05;1.65;;;;;;;15.13;100.00;100229.38;7377849;19;20018;-67
2022/10/24 05:18:35;;;;;;;7.82;1.63;;;;;;;15.08;100.00;100220.63;7379926;19;20255;-67
2022/10/24 05:21:05;;;;;;;8.60;2.05;;;;;;;15.21;100.00;100234.53;7378251;19;20362;-67
2022/10/24 05:23:34;;;;;;;4.05;1.65;;;;;;;15.11;100.00;100217.94;7378751;19;20034;-67
2022/10/24 05:26:04;;;;;;;11.95;2.13;;;;;;;15.16;100.00;100231.09;7378251;19;20070;-68
2022/10/24 05:28:34;;;;;;;8.85;1.50;;;;;;;15.11;100.00;100228.50;7379764;19;20011;-67
2022/10/24 05:31:04;;;;;;;9.10;2.58;;;;;;;15.08;100.00;100222.41;7379123;19;20014;-68
2022/10/24 05:33:36;;;;;;;4.57;1.48;;;;;;;15.03;100.00;100240.94;7367896;19;20019;-67
2022/10/24 05:36:07;;;;;;;12.10;2.25;;;;;;;15.01;100.00;100240.09;7377880;19;20022;-68
2022/10/24 05:38:37;;;;;;;7.38;1.90;;;;;;;15.04;100.00;100224.22;7377254;19;20478;-69
2022/10/24 05:41:07;;;;;;;7.22;2.25;;;;;;;15.02;100.00;100218.97;7373789;19;20006;-68
2022/10/24 05:43:36;;;;;;;7.80;2.00;;;;;;;15.03;100.00;100222.47;7377054;19;20475;-68
2022/10/24 05:46:06;;;;;;;6.93;2.22;;;;;;;15.00;100.00;100238.34;7372081;19;20026;-67
2022/10/24 05:48:38;;;;;;;9.52;2.03;;;;;;;15.07;100.00;100247.94;7376223;19;20010;-67
2022/10/24 05:51:08;;;;;;;6.60;1.83;;;;;;;15.04;100.00;100238.28;7376599;19;20491;-67
2022/10/24 05:53:38;;;;;;;6.95;1.92;;;;;;;15.04;100.00;100234.78;7368966;19;20014;-67
2022/10/24 05:56:08;;;;;;;3.80;1.30;;;;;;;15.13;100.00;100245.22;7376180;19;20015;-68
2022/10/24 05:58:38;;;;;;;6.63;2.05;;;;;;;15.08;100.00;100246.16;7377546;19;20021;-69
2022/10/24 06:01:08;;;;;;;10.55;2.15;;;;;;;15.03;100.00;100235.66;7373818;19;20015;-69
2022/10/24 06:03:41;;;;;;;8.70;1.80;;;;;;;14.97;100.00;100246.31;7378454;19;20018;-68
2022/10/24 06:06:11;;;;;;;5.83;1.70;;;;;;;14.96;100.00;100244.56;7377205;19;20023;-67
2022/10/24 06:08:41;;;;;;;6.25;1.48;;;;;;;15.02;100.00;100249.78;7379368;19;20022;-67
2022/10/24 06:11:12;;;;;;;7.07;1.73;;;;;;;15.08;100.00;100254.09;7371510;19;20046;-67
2022/10/24 06:13:42;;;;;;;5.32;1.70;;;;;;;14.98;100.00;100253.34;7378001;19;20018;-68
2022/10/24 06:16:13;;;;;;;9.88;1.80;;;;;;;15.01;100.00;100248.03;7374224;19;20017;-68
2022/10/24 06:18:45;;;;;;;8.43;2.17;;;;;;;14.97;100.00;100267.44;7377653;19;20491;-68
2022/10/24 06:21:17;;;;;;;8.27;2.10;;;;;;;15.04;100.00;100272.63;7371585;19;20007;-68
2022/10/24 06:23:47;;;;;;;5.93;1.52;;;;;;;15.05;100.00;100258.53;7379270;19;20014;-68
2022/10/24 06:26:16;;;;;;;7.75;1.80;;;;;;;15.04;100.00;100269.97;7378856;19;20077;-68
2022/10/24 06:28:51;;;;;;;8.10;1.90;;;;;;;15.04;100.00;100292.88;7376659;19;20048;-68
2022/10/24 06:31:21;;;;;;;6.20;1.83;;;;;;;15.00;100.00;100273.56;7376610;19;20018;-68
2022/10/24 06:33:54;;;;;;;8.43;2.83;;;;;;;15.08;100.00;100281.38;7373979;19;20015;-68
2022/10/24 06:36:25;;;;;;;7.43;1.85;;;;;;;15.03;100.00;100273.50;7377746;19;20115;-68
2022/10/24 06:38:59;;;;;;;8.63;2.72;;;;;;;15.11;100.00;100302.47;7374494;19;20014;-68
2022/10/24 06:41:29;;;;;;;9.48;1.58;;;;;;;15.12;100.00;100298.94;7370362;19;20411;-69
2022/10/24 06:43:59;;;;;;;13.32;2.40;;;;;;;15.14;100.00;100302.41;7371334;19;20018;-70
2022/10/24 06:46:29;;;;;;;3.95;1.20;;;;;;;15.13;100.00;100305.97;7374544;19;20427;-69
2022/10/24 06:49:01;;;;;;;6.93;1.85;;;;;;;15.15;100.00;100304.16;7370926;19;20013;-67
2022/10/24 06:51:31;;;;;;;7.47;1.85;;;;;;;15.14;100.00;100320.03;7360221;19;20018;-69
2022/10/24 06:54:01;;;;;;;9.98;2.13;;;;;;;15.13;100.00;100313.88;7361142;19;20372;-69
2022/10/24 06:56:31;;;;;;;7.75;1.83;;;;;;;15.15;100.00;100329.72;7369416;19;20049;-67
2022/10/24 06:59:00;;;;;;;6.05;1.40;;;;;;;15.11;100.00;100334.16;7369524;19;20017;-69
2022/10/24 07:01:31;;;;;;;8.48;2.03;;;;;;;15.10;100.00;100321.84;7368569;19;20025;-69
2022/10/24 07:04:04;;;;;;;5.85;2.17;;;;;;;15.12;100.00;100338.53;7367845;19;20014;-67
2022/10/24 07:06:34;;;;;;;3.67;1.70;;;;;;;15.10;100.00;100337.69;7369403;19;20014;-68
2022/10/24 07:09:05;;;;;;;9.18;1.83;;;;;;;15.10;100.00;100347.38;7370573;19;20019;-69
2022/10/24 07:11:40;;;;;;;8.00;1.85;;;;;;;15.14;100.00;100349.09;7374600;19;20099;-69
2022/10/24 07:14:09;;;;;;;10.93;1.98;;;;;;;15.15;100.00;100367.56;7367352;19;20015;-67
2022/10/24 07:16:39;;;;;;;7.07;1.83;;;;;;;15.16;100.00;100373.72;7371733;19;20014;-67
2022/10/24 07:19:12;;;;;;;7.32;1.80;;;;;;;15.18;100.00;100382.50;7371993;19;20322;-67
2022/10/24 07:21:42;;;;;;;6.15;1.55;;;;;;;15.19;100.00;100379.84;7368023;19;20021;-67
2022/10/24 07:24:13;;;;;;;6.07;1.90;;;;;;;15.25;100.00;100387.69;7369135;19;20014;-68
2022/10/24 07:26:44;;;;;;;7.35;2.30;;;;;;;15.20;100.00;100412.41;7368818;19;20042;-70
2022/10/24 07:29:13;;;;;;;6.78;1.75;;;;;;;15.14;100.00;100400.16;7374225;19;20125;-70
2022/10/24 07:31:43;;;;;;;7.35;1.77;;;;;;;15.08;100.00;100402.00;7373599;19;20497;-68
2022/10/24 07:34:16;;;;;;;7.03;1.55;;;;;;;15.06;100.00;100407.28;7369214;19;20019;-69
2022/10/24 07:36:48;;;;;;;9.35;2.03;;;;;;;15.10;100.00;100405.50;7374003;19;20018;-69
2022/10/24 07:39:18;;;;;;;9.20;1.98;;;;;;;15.09;100.00;100422.22;7373262;19;20014;-69
2022/10/24 07:41:48;;;;;;;5.63;1.77;;;;;;;15.03;100.00;100410.84;7371836;19;20025;-69
2022/10/24 07:44:17;;;;;;;7.20;1.92;;;;;;;15.02;100.00;100418.78;7374077;19;20426;-67
2022/10/24 07:46:47;;;;;;;7.82;1.88;;;;;;;15.00;100.00;100424.09;7372301;19;20003;-67
2022/10/24 07:49:19;;;;;;;6.90;1.80;;;;;;;15.03;100.00;100425.81;7371449;19;20018;-67
2022/10/24 07:51:49;;;;;;;7.85;1.80;;;;;;;15.08;100.00;100424.00;7371900;19;20066;-67
2022/10/24 07:54:18;;;;;;;5.65;1.77;;;;;;;15.11;100.00;100425.72;7366949;19;20019;-68
2022/10/24 07:56:48;;;;;;;7.88;2.50;;;;;;;15.14;100.00;100434.50;7376445;19;20014;-68
2022/10/24 07:59:18;;;;;;;8.88;2.65;;;;;;;15.20;100.00;100439.69;7378901;19;20006;-68
2022/10/24 08:02:07;;;;;;;9.05;2.50;;;;;;;15.22;100.00;100448.47;7372739;19;20884;-68
2022/10/24 08:04:39;;;;;;;6.43;1.90;;;;;;;15.17;100.00;100437.09;7376800;19;20014;-68
2022/10/24 08:07:11;;;;;;;6.18;2.50;;;;;;;15.21;100.00;100462.56;7380859;19;20029;-68
2022/10/24 08:09:43;;;;;;;14.23;2.03;;;;;;;15.13;100.00;100469.72;7374193;19;20033;-68
2022/10/24 08:12:13;;;;;;;8.77;2.25;;;;;;;15.09;100.00;100467.13;7385726;19;20017;-68
2022/10/24 08:14:43;;;;;;;14.38;2.63;;;;;;;15.07;100.00;100477.72;7369064;19;20468;-68
2022/10/24 08:17:13;;;;;;;7.90;2.05;;;;;;;14.95;100.00;100480.47;7374514;19;20014;-68
2022/10/24 08:19:46;;;;;;;4.47;2.28;;;;;;;14.88;100.00;100484.06;7377281;19;20533;-68
2022/10/24 08:22:15;;;;;;;9.27;2.10;;;;;;;14.77;100.00;100489.44;7377697;19;20378;-68
2022/10/24 08:24:45;;;;;;;5.47;2.20;;;;;;;14.75;100.00;100490.34;7375072;19;20014;-69
2022/10/24 08:27:16;;;;;;;6.38;2.08;;;;;;;14.72;100.00;100510.59;7377563;19;20097;-68
2022/10/24 08:29:46;;;;;;;8.02;1.90;;;;;;;14.75;100.00;100504.44;7377154;19;20007;-68
2022/10/24 08:32:16;;;;;;;6.85;1.90;;;;;;;14.70;100.00;100522.94;7382312;19;20833;-68
2022/10/24 08:34:48;;;;;;;9.35;2.25;;;;;;;14.67;100.00;100499.22;7374450;19;20541;-69
2022/10/24 08:37:18;;;;;;;5.43;1.70;;;;;;;14.60;100.00;100500.16;7376138;19;20014;-69
2022/10/24 08:39:47;;;;;;;10.27;1.80;;;;;;;14.56;100.00;100514.25;7377268;19;20015;-68
2022/10/24 08:42:20;;;;;;;10.27;2.22;;;;;;;14.54;100.00;100504.66;7377397;19;20056;-68
2022/10/24 08:44:49;;;;;;;6.60;2.50;;;;;;;14.51;100.00;100515.22;7376590;19;20731;-68
2022/10/24 08:47:28;;;;;;;8.30;2.53;;;;;;;14.51;100.00;100515.22;7376191;19;20582;-68
2022/10/24 08:50:06;;;;;;;8.43;2.00;;;;;;;14.53;100.00;100538.06;7377717;19;20055;-69
2022/10/24 08:52:42;;;;;;;6.72;1.67;;;;;;;14.54;100.00;100529.28;7371968;19;21115;-71
2022/10/24 08:55:21;;;;;;;6.40;1.80;;;;;;;14.49;100.00;100517.88;7373693;19;20449;-71
2022/10/24 08:58:15;;;;;;;5.73;1.90;;;;;;;14.48;100.00;100533.72;7378087;19;20468;-71
2022/10/24 09:00:48;;;;;;;4.47;1.80;;;;;;;14.48;100.00;100536.34;7378510;19;20229;-69
2022/10/24 09:03:25;;;;;;;8.37;2.40;;;;;;;14.61;100.00;100541.50;7376353;19;20396;-69
2022/10/24 09:06:20;;;;;;;8.30;1.70;;;;;;;14.66;100.00;100546.75;7375978;19;20013;-69
2022/10/24 09:08:55;;;;;;;11.27;2.40;;;;;;;14.69;100.00;100542.31;7377140;19;20035;-68
2022/10/24 09:11:32;;;;;;;7.93;2.45;;;;;;;14.93;100.00;100546.50;7376532;19;20047;-69
2022/10/24 09:14:03;;;;;;;8.35;2.13;;;;;;;15.14;100.00;100548.06;7378255;19;20014;-69
2022/10/24 09:16:33;;;;;;;11.48;2.20;;;;;;;15.20;100.00;100545.38;7373944;19;20010;-69
2022/10/24 09:19:03;;;;;;;5.80;2.83;;;;;;;15.13;100.00;100558.66;7375092;19;20101;-69
2022/10/24 09:21:36;;;;;;;8.52;2.75;;;;;;;15.14;100.00;100553.34;7380142;19;20015;-69
2022/10/24 09:24:06;;;;;;;8.45;1.83;;;;;;;14.98;100.00;100564.94;7379869;19;20111;-69
2022/10/24 09:26:39;;;;;;;7.43;2.08;;;;;;;15.03;100.00;100568.41;7379504;19;20298;-69
2022/10/24 09:29:09;;;;;;;8.48;2.80;;;;;;;15.19;100.00;100570.03;7374632;19;20543;-69
2022/10/24 09:31:39;;;;;;;7.85;2.28;;;;;;;15.21;100.00;100572.66;7379610;19;20025;-69
2022/10/24 09:34:08;;;;;;;10.27;2.70;;;;;;;15.29;100.00;100576.97;7377123;19;20026;-69
2022/10/24 09:36:41;;;;;;;7.68;2.40;;;;;;;15.16;100.00;100579.75;7372756;19;20269;-69
2022/10/24 09:39:29;;;;;;;4.47;1.80;;;;;;;15.01;100.00;100580.75;7376929;19;20513;-69
2022/10/24 09:42:00;;;;;;;8.15;2.15;;;;;;;14.92;100.00;100584.38;7375808;19;20343;-69
2022/10/24 09:44:33;;;;;;;7.55;2.05;;;;;;;14.89;100.00;100586.16;7374495;19;20102;-69
2022/10/24 09:47:07;;;;;;;10.10;3.28;;;;;;;14.81;100.00;100595.91;7374530;19;21119;-68
2022/10/24 09:49:41;;;;;;;9.18;2.20;;;;;;;14.87;100.00;100595.84;7376148;19;20010;-68
2022/10/24 09:52:22;;;;;;;7.50;2.03;;;;;;;14.86;100.00;100615.22;7375297;19;20467;-68
2022/10/24 09:55:08;;;;;;;8.60;2.28;;;;;;;14.90;100.00;100599.34;7373776;19;20018;-68
2022/10/24 09:57:42;;;;;;;11.23;2.65;;;;;;;15.09;100.00;100612.38;7373765;19;20344;-70
2022/10/24 10:00:25;;;;;;;10.93;2.47;;;;;;;15.21;100.00;100621.09;7375895;19;20007;-70
2022/10/24 10:03:01;;;;;;;8.27;2.53;;;;;;;15.45;100.00;100616.44;7379177;19;20018;-70
2022/10/24 10:05:46;;;;;;;9.45;2.35;;;;;;;15.27;100.00;100634.25;7378951;19;20043;-70
2022/10/24 10:08:22;;;;;;;8.80;2.00;;;;;;;15.32;100.00;100619.22;7372615;19;20074;-70
2022/10/24 10:11:09;;;;;;;8.88;2.13;;;;;;;15.36;100.00;100634.16;7376535;19;20158;-70
2022/10/24 10:13:48;;;;;;;10.15;2.10;;;;;;;15.42;100.00;100634.97;7375291;19;20025;-70
2022/10/24 10:16:27;;;;;;;6.93;2.05;;;;;;;15.49;100.00;100639.31;7375987;19;20025;-69
2022/10/24 10:19:03;;;;;;;10.02;2.28;;;;;;;15.68;100.00;100638.25;7377734;19;20138;-69
2022/10/24 10:21:56;;;;;;;7.20;2.03;;;;;;;15.63;100.00;100638.28;7375606;19;20003;-70
2022/10/24 10:24:38;;;;;;;9.73;2.83;;;;;;;15.60;100.00;100655.97;7377632;19;20487;-70
2022/10/24 10:27:32;;;;;;;7.82;2.08;;;;;;;15.51;100.00;100661.31;7374729;19;20006;-70
2022/10/24 10:30:23;;;;;;;9.57;2.70;;;;;;;15.43;100.00;100663.16;7378992;19;20030;-70
2022/10/24 10:33:05;;;;;;;8.70;2.17;;;;;;;15.24;100.00;100667.72;7377625;19;20006;-70
2022/10/24 10:35:44;;;;;;;15.95;2.78;;;;;;;15.25;100.00;100677.41;7374222;19;20120;-70
2022/10/24 10:38:31;;;;;;;4.85;1.92;;;;;;;15.03;100.00;100688.16;7379051;19;20024;-69
2022/10/24 10:41:08;;;;;;;8.13;2.67;;;;;;;15.09;100.00;100689.00;7372458;19;20018;-69
2022/10/24 10:43:45;;;;;;;5.80;1.88;;;;;;;14.94;100.00;100689.97;7373457;19;20070;-69
2022/10/24 10:46:23;;;;;;;7.80;2.50;;;;;;;14.82;100.00;100695.34;7378897;19;20015;-70
2022/10/24 10:49:05;;;;;;;5.97;2.10;;;;;;;14.66;100.00;100708.63;7375399;19;20021;-69
2022/10/24 10:51:44;;;;;;;9.27;2.28;;;;;;;14.65;100.00;100716.56;7378157;19;20010;-70
2022/10/24 10:54:29;;;;;;;6.65;2.65;;;;;;;14.59;100.00;100708.66;7371655;19;20706;-70
2022/10/24 10:57:04;;;;;;;4.85;2.50;;;;;;;14.54;100.00;100711.34;7371952;19;20019;-70
2022/10/24 10:59:47;;;;;;;6.15;2.40;;;;;;;14.51;100.00;100711.38;7378533;19;20006;-69
2022/10/24 11:02:46;;;;;;;9.45;2.70;;;;;;;14.50;100.00;100722.81;7374754;19;20086;-70
2022/10/24 11:05:34;;;;;;;7.43;2.80;;;;;;;14.55;100.00;100712.25;7377437;19;20018;-72
2022/10/24 11:08:19;;;;;;;7.10;2.65;;;;;;;14.59;100.00;100730.66;7376272;19;20011;-70
2022/10/24 11:10:53;;;;;;;8.02;3.20;;;;;;;14.58;100.00;100722.75;7373930;19;20010;-71
2022/10/24 11:13:31;;;;;;;8.77;3.53;;;;;;;14.61;100.00;100715.69;7376283;19;20019;-70
2022/10/24 11:16:08;;;;;;;9.25;3.15;;;;;;;14.84;100.00;100722.59;7373162;19;20010;-70
2022/10/24 11:18:41;;;;;;;8.93;3.38;;;;;;;14.75;100.00;100722.66;7374654;19;20020;-70
2022/10/24 11:21:14;;;;;;;6.57;2.90;;;;;;;14.74;100.00;100721.78;7374173;19;20018;-70
2022/10/24 11:23:50;;;;;;;9.17;2.93;;;;;;;14.76;100.00;100721.78;7371302;19;20563;-69
2022/10/24 11:26:25;;;;;;;7.43;3.30;;;;;;;14.70;100.00;100726.19;7375441;19;20384;-69
2022/10/24 11:29:03;;;;;;;10.48;2.90;;;;;;;14.65;100.00;100737.66;7376679;19;20007;-69
2022/10/24 11:31:39;;;;;;;9.68;2.70;;;;;;;14.54;100.00;100735.09;7368700;19;20455;-69
2022/10/24 11:34:15;;;;;;;6.78;2.90;;;;;;;14.64;100.00;100735.91;7373295;19;20023;-69
2022/10/24 11:36:52;;;;;;;6.18;2.55;;;;;;;14.55;100.00;100738.63;7373418;19;20010;-69
2022/10/24 11:39:28;;;;;;;6.57;2.22;;;;;;;14.47;100.00;100729.88;7376705;19;20006;-69
2022/10/24 11:42:04;;;;;;;7.38;2.10;;;;;;;14.50;100.00;100748.31;7369003;19;20018;-69
2022/10/24 11:44:49;;;;;;;7.78;2.40;;;;;;;14.47;100.00;100746.56;7376590;19;20042;-69